Time;durP1;ratioP1;P1;durP2;ratioP2;P2;SDS_P1;SDS_P2;PMS_P1;PMS_P2;Temp;Humidity;BMP_temperature;BMP_pressure;BME280_temperature;BME280_humidity;BME280_pressure;Samples;Min_cycle;Max_cycle;Signal;HPM_P1;HPM_P2
2022/02/15 00:01:41;;;;;;;37.22;22.65;;;;;;;7.46;96.00;100281.38;5116407;28;20046;-76
2022/02/15 00:04:07;;;;;;;35.28;22.45;;;;;;;7.47;95.71;100283.06;5116880;28;20066;-77
2022/02/15 00:06:32;;;;;;;34.13;21.15;;;;;;;7.51;95.86;100286.38;5116033;28;20039;-76
2022/02/15 00:08:58;;;;;;;35.30;20.95;;;;;;;7.48;95.71;100291.94;5117659;28;20023;-76
2022/02/15 00:11:24;;;;;;;35.63;22.30;;;;;;;7.43;96.13;100300.28;5119937;28;20076;-77
2022/02/15 00:13:49;;;;;;;32.65;21.55;;;;;;;7.44;96.31;100285.09;5120079;28;20055;-77
2022/02/15 00:16:15;;;;;;;33.85;20.70;;;;;;;7.44;96.30;100285.09;5120472;28;20015;-76
2022/02/15 00:18:40;;;;;;;33.70;20.73;;;;;;;7.46;96.07;100285.84;5119768;28;20467;-76
2022/02/15 00:21:06;;;;;;;31.92;20.25;;;;;;;7.41;96.73;100275.50;5120401;28;20502;-75
2022/02/15 00:23:31;;;;;;;34.35;20.77;;;;;;;7.34;96.19;100273.41;5120124;28;20023;-76
2022/02/15 00:25:57;;;;;;;33.95;20.70;;;;;;;7.35;96.49;100278.63;5120499;28;20382;-75
2022/02/15 00:28:22;;;;;;;30.95;20.08;;;;;;;7.37;96.47;100273.19;5120110;28;20034;-76
2022/02/15 00:30:48;;;;;;;32.67;19.85;;;;;;;7.37;97.04;100283.88;5120553;28;20023;-76
2022/02/15 00:33:13;;;;;;;32.20;20.02;;;;;;;7.40;96.78;100283.63;5120222;28;20024;-76
2022/02/15 00:35:39;;;;;;;38.95;20.65;;;;;;;7.39;96.59;100280.13;5119859;28;20119;-75
2022/02/15 00:38:04;;;;;;;37.33;20.30;;;;;;;7.40;97.22;100284.50;5118938;28;20071;-75
2022/02/15 00:40:29;;;;;;;33.08;19.95;;;;;;;7.38;97.28;100275.75;5120288;28;20174;-76
2022/02/15 00:42:55;;;;;;;27.30;18.70;;;;;;;7.40;97.58;100279.16;5119816;28;20071;-75
2022/02/15 00:45:20;;;;;;;29.92;19.52;;;;;;;7.41;97.45;100269.34;5119287;28;20027;-76
2022/02/15 00:47:46;;;;;;;32.20;18.50;;;;;;;7.39;97.05;100263.25;5118909;28;20034;-75
2022/02/15 00:50:11;;;;;;;34.25;20.10;;;;;;;7.30;97.48;100246.13;5118327;27;20531;-77
2022/02/15 00:52:37;;;;;;;30.75;19.30;;;;;;;7.35;97.28;100259.13;5119187;27;20036;-76
2022/02/15 00:55:04;;;;;;;29.52;17.83;;;;;;;7.38;97.50;100262.41;5118861;28;20020;-76
2022/02/15 00:57:29;;;;;;;27.92;17.95;;;;;;;7.30;97.71;100246.13;5119644;28;20031;-75
2022/02/15 00:59:55;;;;;;;31.80;18.67;;;;;;;7.36;97.69;100256.34;5119024;28;20027;-76
2022/02/15 01:02:20;;;;;;;35.75;20.08;;;;;;;7.33;98.17;100242.38;5119349;28;20054;-76
2022/02/15 01:04:46;;;;;;;29.83;18.90;;;;;;;7.38;98.07;100248.25;5118562;28;20027;-76
2022/02/15 01:07:11;;;;;;;32.47;19.08;;;;;;;7.38;97.62;100250.91;5119759;28;20036;-75
2022/02/15 01:09:37;;;;;;;33.72;19.40;;;;;;;7.38;97.40;100251.72;5118315;28;20023;-75
2022/02/15 01:12:03;;;;;;;30.42;18.67;;;;;;;7.30;97.84;100240.81;5119399;28;20527;-76
2022/02/15 01:14:29;;;;;;;29.40;18.42;;;;;;;7.33;97.73;100237.06;5118907;28;20042;-75
2022/02/15 01:16:54;;;;;;;33.65;19.70;;;;;;;7.32;98.34;100246.84;5119340;28;20076;-75
2022/02/15 01:19:20;;;;;;;31.48;18.88;;;;;;;7.41;97.50;100245.34;5118022;28;20054;-75
2022/02/15 01:21:45;;;;;;;29.27;18.27;;;;;;;7.39;98.29;100241.94;5119251;28;20031;-76
2022/02/15 01:24:11;;;;;;;30.65;18.15;;;;;;;7.34;97.92;100228.06;5119236;28;20551;-76
2022/02/15 01:26:36;;;;;;;32.42;19.35;;;;;;;7.27;98.65;100225.03;5120218;28;20058;-77
2022/02/15 01:29:03;;;;;;;29.95;18.27;;;;;;;7.36;98.68;100239.47;5119428;28;20049;-76
2022/02/15 01:31:28;;;;;;;32.08;19.50;;;;;;;7.34;99.37;100239.59;5119492;28;20027;-77
2022/02/15 01:33:54;;;;;;;30.73;19.02;;;;;;;7.34;99.26;100228.94;5120018;28;20074;-77
2022/02/15 01:36:20;;;;;;;29.13;17.75;;;;;;;7.34;99.60;100236.94;5119905;28;20027;-77
2022/02/15 01:38:45;;;;;;;31.60;19.75;;;;;;;7.25;99.83;100216.28;5119834;28;20059;-76
2022/02/15 01:41:10;;;;;;;31.85;19.48;;;;;;;7.27;99.94;100216.16;5119095;28;20035;-76
2022/02/15 01:43:40;;;;;;;33.08;19.55;;;;;;;7.34;100.00;100231.59;5118941;28;20031;-76
2022/02/15 01:46:07;;;;;;;34.83;20.40;;;;;;;7.36;100.00;100228.81;5118871;28;20120;-77
2022/02/15 01:48:36;;;;;;;32.50;19.13;;;;;;;7.33;99.84;100218.38;5117850;28;20470;-77
2022/02/15 01:51:03;;;;;;;29.27;19.20;;;;;;;7.30;100.00;100216.81;5118494;28;20026;-76
2022/02/15 01:53:29;;;;;;;28.98;18.13;;;;;;;7.31;100.00;100226.50;5117614;28;20031;-75
2022/02/15 01:55:55;;;;;;;28.90;18.15;;;;;;;7.27;100.00;100221.50;5118140;28;20030;-75
2022/02/15 01:58:22;;;;;;;28.15;18.75;;;;;;;7.32;100.00;100227.34;5118866;28;20474;-77
2022/02/15 02:00:47;;;;;;;30.83;18.40;;;;;;;7.32;100.00;100219.34;5117672;28;20023;-76
2022/02/15 02:03:12;;;;;;;27.85;17.48;;;;;;;7.33;100.00;100221.91;5117462;28;20024;-77
2022/02/15 02:05:50;;;;;;;30.20;19.60;;;;;;;7.30;100.00;100223.94;5118443;28;20091;-76
2022/02/15 02:08:34;;;;;;;30.60;18.73;;;;;;;7.28;100.00;100218.72;5117954;28;20428;-76
2022/02/15 02:11:01;;;;;;;28.27;17.88;;;;;;;7.23;100.00;100204.03;5118356;28;20024;-76
2022/02/15 02:13:26;;;;;;;31.83;18.90;;;;;;;7.27;100.00;100209.03;5117783;27;20102;-75
2022/02/15 02:15:52;;;;;;;33.35;18.73;;;;;;;7.16;100.00;100195.63;5117645;28;20051;-75
2022/02/15 02:18:18;;;;;;;30.10;19.05;;;;;;;7.26;100.00;100204.66;5116824;28;20600;-75
2022/02/15 02:20:44;;;;;;;33.10;18.80;;;;;;;7.30;100.00;100205.28;5117251;28;20038;-76
2022/02/15 02:23:15;;;;;;;28.88;17.98;;;;;;;7.28;100.00;100196.56;5116143;27;20363;-76
2022/02/15 02:25:41;;;;;;;37.17;19.42;;;;;;;7.26;100.00;100203.81;5116134;28;20084;-76
2022/02/15 02:28:08;;;;;;;29.70;18.83;;;;;;;7.20;100.00;100201.59;5116696;27;20035;-76
2022/02/15 02:30:33;;;;;;;30.02;18.80;;;;;;;7.26;100.00;100209.16;5117841;28;20202;-77
2022/02/15 02:32:59;;;;;;;29.70;19.90;;;;;;;7.18;100.00;100188.38;5116688;28;21132;-77
2022/02/15 02:35:25;;;;;;;31.83;19.65;;;;;;;7.28;100.00;100207.22;5117346;28;20047;-76
2022/02/15 02:37:50;;;;;;;32.10;19.42;;;;;;;7.22;100.00;100203.19;5117421;28;20028;-77
2022/02/15 02:40:16;;;;;;;29.38;18.17;;;;;;;7.18;100.00;100199.06;5116198;28;20023;-77
2022/02/15 02:42:42;;;;;;;35.65;19.77;;;;;;;7.21;100.00;100209.50;5115558;28;20085;-76
2022/02/15 02:45:10;;;;;;;32.85;19.92;;;;;;;7.24;100.00;100211.94;5115669;28;20042;-77
2022/02/15 02:47:37;;;;;;;33.70;19.33;;;;;;;7.19;100.00;100199.91;5117099;28;20103;-78
2022/02/15 02:50:04;;;;;;;29.02;19.20;;;;;;;7.27;100.00;100219.69;5115303;28;20020;-77
2022/02/15 02:52:30;;;;;;;32.15;19.13;;;;;;;7.25;100.00;100204.78;5114589;28;20448;-76
2022/02/15 02:54:57;;;;;;;33.10;19.52;;;;;;;7.28;100.00;100215.22;5114238;28;20043;-77
2022/02/15 02:57:23;;;;;;;34.08;19.33;;;;;;;7.15;100.00;100198.44;5114012;28;20098;-77
2022/02/15 02:59:48;;;;;;;28.60;17.52;;;;;;;7.24;100.00;100216.41;5114437;28;20559;-77
2022/02/15 03:02:15;;;;;;;28.63;18.48;;;;;;;7.29;100.00;100219.59;5115022;28;20020;-78
2022/02/15 03:04:41;;;;;;;34.90;19.50;;;;;;;7.21;100.00;100216.63;5114404;28;20059;-76
2022/02/15 03:07:07;;;;;;;29.52;18.90;;;;;;;7.24;100.00;100221.72;5114948;28;20548;-77
2022/02/15 03:09:32;;;;;;;35.47;19.33;;;;;;;7.30;100.00;100229.28;5114807;28;20486;-76
2022/02/15 03:11:58;;;;;;;29.83;18.65;;;;;;;7.29;100.00;100232.91;5115619;28;20386;-77
2022/02/15 03:14:24;;;;;;;30.40;18.83;;;;;;;7.28;100.00;100234.72;5114328;28;20124;-77
2022/02/15 03:16:49;;;;;;;33.55;19.88;;;;;;;7.27;100.00;100226.84;5113906;28;20028;-68
2022/02/15 03:19:15;;;;;;;27.63;18.05;;;;;;;7.27;100.00;100238.38;5112288;28;20077;-69
2022/02/15 03:21:40;;;;;;;31.75;18.67;;;;;;;7.26;100.00;100231.34;5111357;28;20035;-69
2022/02/15 03:24:06;;;;;;;28.75;17.77;;;;;;;7.27;100.00;100235.69;5111311;28;20104;-68
2022/02/15 03:26:32;;;;;;;29.25;18.55;;;;;;;7.28;100.00;100236.56;5109238;28;20035;-69
2022/02/15 03:28:57;;;;;;;28.95;18.52;;;;;;;7.25;99.91;100220.78;5111101;28;20034;-69
2022/02/15 03:31:23;;;;;;;30.35;18.15;;;;;;;7.24;99.51;100222.59;5111021;28;20049;-68
2022/02/15 03:33:49;;;;;;;29.00;17.90;;;;;;;7.17;99.66;100207.16;5110891;28;20031;-67
2022/02/15 03:36:15;;;;;;;27.00;17.42;;;;;;;7.27;99.91;100229.50;5110743;28;20027;-69
2022/02/15 03:38:41;;;;;;;26.13;17.27;;;;;;;7.28;99.18;100224.06;5110657;28;20106;-69
2022/02/15 03:43:51;;;;;;;26.52;17.35;;;;;;;7.38;97.67;100233.06;5110655;28;20058;-69
2022/02/15 03:46:17;;;;;;;29.45;19.00;;;;;;;7.41;97.92;100229.34;5110499;28;20035;-69
2022/02/15 03:48:42;;;;;;;27.10;16.75;;;;;;;7.31;97.51;100222.97;5110792;28;20024;-69
2022/02/15 03:51:08;;;;;;;24.33;16.92;;;;;;;7.22;98.03;100213.03;5110916;28;20016;-69
2022/02/15 03:53:34;;;;;;;29.45;17.23;;;;;;;7.34;97.61;100230.75;5110795;28;20059;-69
2022/02/15 03:55:59;;;;;;;27.20;15.95;;;;;;;7.24;97.99;100224.41;5110546;28;20016;-69
2022/02/15 03:58:25;;;;;;;26.83;16.20;;;;;;;7.29;97.40;100232.91;5110365;28;20436;-69
2022/02/15 04:00:51;;;;;;;25.13;16.80;;;;;;;7.24;97.41;100219.06;5110748;28;20399;-69
2022/02/15 04:03:17;;;;;;;32.42;17.02;;;;;;;7.29;97.86;100239.13;5110771;28;20023;-69
2022/02/15 04:05:42;;;;;;;26.40;15.55;;;;;;;7.19;97.48;100227.41;5110507;28;20108;-69
2022/02/15 04:08:08;;;;;;;28.02;17.38;;;;;;;7.25;97.65;100242.13;5110089;28;20028;-69
2022/02/15 04:10:34;;;;;;;28.35;18.13;;;;;;;7.19;97.42;100237.25;5110067;28;20386;-69
2022/02/15 04:12:59;;;;;;;28.63;17.85;;;;;;;7.10;97.47;100230.78;5110613;28;20020;-69
2022/02/15 04:15:24;;;;;;;24.35;15.88;;;;;;;7.12;97.54;100238.69;5110321;28;20023;-69
2022/02/15 04:17:50;;;;;;;28.70;16.38;;;;;;;7.07;97.21;100228.34;5110194;28;20114;-71
2022/02/15 04:20:16;;;;;;;34.47;17.15;;;;;;;7.10;97.54;100245.94;5110408;28;20019;-69
2022/02/15 04:22:42;;;;;;;27.38;16.52;;;;;;;7.03;97.39;100242.03;5110916;28;20122;-70
2022/02/15 04:25:08;;;;;;;23.83;16.48;;;;;;;7.01;96.85;100239.47;5110767;28;20051;-69
2022/02/15 04:27:34;;;;;;;26.58;17.00;;;;;;;6.94;97.13;100239.06;5110413;28;20042;-68
2022/02/15 04:30:00;;;;;;;27.67;17.77;;;;;;;6.96;96.67;100245.16;5110046;28;20020;-68
2022/02/15 04:32:25;;;;;;;29.92;17.10;;;;;;;6.88;97.10;100233.34;5104995;28;20031;-69
2022/02/15 04:34:51;;;;;;;28.52;16.40;;;;;;;6.90;97.69;100248.25;5104843;28;20043;-69
2022/02/15 04:37:16;;;;;;;28.27;16.45;;;;;;;6.85;96.98;100255.75;5107528;28;20092;-69
2022/02/15 04:39:42;;;;;;;25.95;16.92;;;;;;;6.82;97.34;100255.13;5108723;28;20084;-69
2022/02/15 04:42:08;;;;;;;26.55;17.40;;;;;;;6.79;97.19;100256.22;5108574;28;20440;-69
2022/02/15 04:44:33;;;;;;;28.45;17.48;;;;;;;6.76;97.31;100253.75;5108940;28;20027;-68
2022/02/15 04:46:59;;;;;;;26.33;17.80;;;;;;;6.70;97.42;100251.53;5107384;28;20375;-69
2022/02/15 04:49:25;;;;;;;30.70;17.48;;;;;;;6.67;97.80;100256.22;5108626;28;20023;-68
2022/02/15 04:51:50;;;;;;;30.92;17.85;;;;;;;6.67;97.81;100251.75;5108309;28;20024;-69
2022/02/15 04:54:17;;;;;;;28.17;17.83;;;;;;;6.66;97.70;100249.22;5108474;28;20047;-69
2022/02/15 04:56:43;;;;;;;30.75;17.42;;;;;;;6.65;98.20;100259.00;5111187;28;20032;-68
2022/02/15 04:59:09;;;;;;;26.00;16.65;;;;;;;6.52;98.12;100236.06;5111488;28;20471;-69
2022/02/15 05:01:34;;;;;;;27.17;17.50;;;;;;;6.63;98.43;100260.09;5111563;28;20031;-69
2022/02/15 05:04:00;;;;;;;27.13;16.33;;;;;;;6.58;98.91;100252.44;5111867;28;20024;-69
2022/02/15 05:06:25;;;;;;;26.20;16.15;;;;;;;6.63;98.75;100260.09;5111820;28;20084;-69
2022/02/15 05:08:51;;;;;;;30.63;18.00;;;;;;;6.65;98.52;100276.84;5111454;28;20040;-69
2022/02/15 05:11:16;;;;;;;27.60;16.80;;;;;;;6.61;98.61;100267.38;5110451;28;20069;-69
2022/02/15 05:13:42;;;;;;;28.05;17.75;;;;;;;6.49;99.30;100246.94;5111536;28;20024;-68
2022/02/15 05:16:07;;;;;;;30.90;16.70;;;;;;;6.61;99.13;100262.88;5111219;28;20385;-68
2022/02/15 05:18:33;;;;;;;32.35;18.63;;;;;;;6.53;99.42;100259.06;5111433;28;20084;-69
2022/02/15 05:21:01;;;;;;;28.77;17.77;;;;;;;6.63;99.01;100278.75;5111239;28;20023;-69
2022/02/15 05:23:28;;;;;;;29.90;17.42;;;;;;;6.64;99.00;100272.44;5094466;28;20066;-67
2022/02/15 05:25:54;;;;;;;30.42;17.27;;;;;;;6.64;99.63;100275.97;5110902;28;20032;-68
2022/02/15 05:28:19;;;;;;;27.58;16.95;;;;;;;6.66;99.40;100270.53;5111191;28;20531;-69
2022/02/15 05:30:45;;;;;;;27.33;16.98;;;;;;;6.67;99.75;100270.41;5111456;28;20103;-68
2022/02/15 05:33:10;;;;;;;29.88;18.85;;;;;;;6.68;99.00;100273.94;5110648;28;20024;-69
2022/02/15 05:35:36;;;;;;;30.10;19.77;;;;;;;6.67;98.65;100269.56;5111342;28;20031;-69
2022/02/15 05:38:01;;;;;;;29.88;19.38;;;;;;;6.73;99.17;100277.09;5109784;28;20030;-69
2022/02/15 05:40:26;;;;;;;30.30;19.70;;;;;;;6.73;98.94;100272.66;5112228;28;20493;-76
2022/02/15 05:42:52;;;;;;;32.40;20.15;;;;;;;6.67;98.75;100270.41;5113103;28;20040;-77
2022/02/15 05:45:17;;;;;;;32.25;19.33;;;;;;;6.73;99.16;100272.66;5114147;28;20532;-76
2022/02/15 05:47:43;;;;;;;34.67;21.33;;;;;;;6.78;98.52;100281.13;5114203;28;20091;-77
2022/02/15 05:52:53;;;;;;;;;;;;;;;6.76;98.21;100280.41;5114682;28;20119;-77
2022/02/15 05:55:18;;;;;;;46.30;25.92;;;;;;;6.82;97.95;100287.09;5113846;28;20366;-76
2022/02/15 05:57:44;;;;;;;40.15;24.80;;;;;;;6.80;98.09;100281.88;5114231;28;20047;-75
2022/02/15 06:00:11;;;;;;;37.95;22.10;;;;;;;6.81;97.87;100288.91;5114653;28;20447;-76
2022/02/15 06:02:36;;;;;;;35.90;20.67;;;;;;;6.81;98.37;100291.56;5114455;28;20114;-77
2022/02/15 06:05:02;;;;;;;30.73;18.88;;;;;;;6.76;97.74;100275.09;5114801;28;20110;-77
2022/02/15 06:07:28;;;;;;;34.15;18.80;;;;;;;6.81;97.51;100280.91;5113034;28;20092;-77
2022/02/15 06:09:53;;;;;;;28.83;18.05;;;;;;;6.76;98.10;100275.09;5114372;28;20024;-77
2022/02/15 06:12:19;;;;;;;29.45;16.88;;;;;;;6.84;97.71;100287.88;5114231;28;20098;-76
2022/02/15 06:14:44;;;;;;;30.17;17.63;;;;;;;6.83;97.78;100284.34;5113416;28;20028;-76
2022/02/15 06:17:10;;;;;;;25.42;16.52;;;;;;;6.83;97.59;100288.81;5113469;28;20047;-77
2022/02/15 06:19:36;;;;;;;27.27;17.10;;;;;;;6.82;97.95;100295.09;5114634;28;20451;-78
2022/02/15 06:22:02;;;;;;;30.00;16.92;;;;;;;6.83;98.13;100300.31;5114081;28;20114;-77
2022/02/15 06:24:28;;;;;;;27.85;17.98;;;;;;;6.82;97.67;100305.75;5113962;28;20039;-77
2022/02/15 06:26:54;;;;;;;25.95;17.55;;;;;;;6.80;97.56;100291.69;5113980;28;20030;-76
2022/02/15 06:29:23;;;;;;;29.80;18.42;;;;;;;6.88;98.05;100306.19;5114066;27;20059;-76
2022/02/15 06:31:49;;;;;;;26.13;17.58;;;;;;;6.89;97.63;100299.03;5112496;28;20662;-76
2022/02/15 06:34:14;;;;;;;28.85;18.65;;;;;;;6.87;96.86;100295.63;5112651;28;20027;-77
2022/02/15 06:36:40;;;;;;;28.38;17.48;;;;;;;6.93;96.65;100301.34;5112841;28;20031;-77
2022/02/15 06:39:09;;;;;;;31.00;19.35;;;;;;;6.97;96.58;100296.66;5114064;28;20024;-76
2022/02/15 06:41:36;;;;;;;29.15;18.67;;;;;;;6.95;96.36;100293.25;5112735;28;20052;-77
2022/02/15 06:44:01;;;;;;;33.97;20.55;;;;;;;7.02;96.35;100296.31;5113970;28;20160;-77
2022/02/15 06:46:27;;;;;;;31.75;20.10;;;;;;;7.10;96.01;100309.94;5114070;28;20102;-76
2022/02/15 06:48:52;;;;;;;30.63;19.67;;;;;;;7.09;95.69;100306.41;5114331;28;20023;-77
2022/02/15 06:51:18;;;;;;;32.97;20.10;;;;;;;7.16;94.80;100310.31;5113667;28;20026;-77
2022/02/15 06:53:43;;;;;;;32.35;20.40;;;;;;;7.16;94.65;100306.81;5113512;28;20119;-76
2022/02/15 06:56:09;;;;;;;29.20;19.95;;;;;;;7.18;94.42;100308.41;5113050;28;20114;-77
2022/02/15 06:58:35;;;;;;;33.13;18.42;;;;;;;7.14;94.66;100300.72;5113117;28;20045;-77
2022/02/15 07:01:00;;;;;;;27.27;18.55;;;;;;;7.20;94.85;100305.63;5112718;28;20023;-77
2022/02/15 07:03:25;;;;;;;29.13;18.67;;;;;;;7.24;94.23;100307.09;5111930;28;20023;-77
2022/02/15 07:05:51;;;;;;;30.55;18.50;;;;;;;7.15;93.83;100305.13;5110403;28;20035;-76
2022/02/15 07:08:16;;;;;;;30.70;20.02;;;;;;;7.24;93.92;100317.75;5110227;28;20027;-68
2022/02/15 07:10:42;;;;;;;28.08;18.05;;;;;;;7.22;93.36;100315.19;5110143;28;20077;-69
2022/02/15 07:13:07;;;;;;;28.77;19.73;;;;;;;7.25;93.42;100336.31;5110373;28;20093;-69
2022/02/15 07:15:33;;;;;;;32.83;19.63;;;;;;;7.22;93.75;100317.03;5107866;28;20023;-69
2022/02/15 07:17:59;;;;;;;32.08;19.60;;;;;;;7.26;93.75;100322.03;5108322;28;20106;-69
2022/02/15 07:20:24;;;;;;;27.20;17.95;;;;;;;7.23;93.41;100311.59;5109170;28;20414;-67
2022/02/15 07:22:50;;;;;;;29.33;17.48;;;;;;;7.21;93.44;100310.84;5110788;28;20103;-69
2022/02/15 07:25:15;;;;;;;30.85;17.08;;;;;;;7.26;92.71;100314.03;5110329;28;20019;-69
2022/02/15 07:27:41;;;;;;;27.90;17.17;;;;;;;7.27;92.66;100312.19;5110082;28;20023;-69
2022/02/15 07:30:07;;;;;;;26.23;16.85;;;;;;;7.32;92.26;100313.53;5110219;28;20374;-68
2022/02/15 07:32:33;;;;;;;25.30;16.60;;;;;;;7.28;92.48;100301.41;5110043;28;20023;-69
2022/02/15 07:34:59;;;;;;;26.48;16.52;;;;;;;7.45;91.58;100319.66;5110082;28;20523;-69
2022/02/15 07:37:26;;;;;;;23.38;15.38;;;;;;;7.44;91.71;100307.31;5110078;28;20058;-68
2022/02/15 07:39:52;;;;;;;25.02;15.82;;;;;;;7.60;90.53;100328.34;5110226;28;20054;-68
2022/02/15 07:42:19;;;;;;;25.02;16.38;;;;;;;7.63;90.79;100320.97;5109806;28;20036;-68
2022/02/15 07:44:44;;;;;;;26.20;15.88;;;;;;;7.71;90.68;100315.06;5109989;28;20509;-68
2022/02/15 07:47:09;;;;;;;21.50;14.43;;;;;;;7.69;90.06;100307.16;5109995;28;20023;-69
2022/02/15 07:49:35;;;;;;;23.48;15.30;;;;;;;7.83;90.26;100317.63;5109832;28;20076;-69
2022/02/15 07:52:02;;;;;;;25.20;15.43;;;;;;;7.91;90.40;100325.06;5109917;28;20058;-69
2022/02/15 07:54:27;;;;;;;22.50;15.57;;;;;;;7.97;89.75;100313.91;5109756;28;20110;-68
2022/02/15 07:56:53;;;;;;;25.42;15.35;;;;;;;8.06;89.59;100316.69;5109767;28;20132;-69
2022/02/15 07:59:19;;;;;;;22.48;15.10;;;;;;;8.20;88.51;100318.31;5110181;28;20024;-70
2022/02/15 08:01:44;;;;;;;28.67;17.15;;;;;;;8.29;87.66;100321.13;5109608;28;20031;-68
2022/02/15 08:04:13;;;;;;;23.88;15.32;;;;;;;8.38;87.57;100312.41;5109899;28;20374;-68
2022/02/15 08:06:41;;;;;;;23.65;15.35;;;;;;;8.50;86.83;100316.78;5108419;28;20398;-68
2022/02/15 08:09:14;;;;;;;23.00;15.43;;;;;;;8.61;86.44;100308.75;5109668;28;20039;-69
2022/02/15 08:11:43;;;;;;;23.90;15.20;;;;;;;8.76;85.94;100318.22;5100070;28;20102;-69
2022/02/15 08:14:09;;;;;;;19.65;13.63;;;;;;;8.98;83.82;100320.88;5109921;28;20097;-69
2022/02/15 08:16:35;;;;;;;23.02;14.10;;;;;;;9.09;82.25;100312.81;5109640;28;20088;-69
2022/02/15 08:19:01;;;;;;;22.95;12.90;;;;;;;9.17;81.19;100315.72;5109602;28;20024;-70
2022/02/15 08:21:26;;;;;;;20.25;13.80;;;;;;;9.27;79.97;100316.66;5109760;28;20019;-69
2022/02/15 08:23:52;;;;;;;22.92;12.68;;;;;;;9.36;79.69;100322.22;5108253;28;20047;-69
2022/02/15 08:26:19;;;;;;;20.83;12.60;;;;;;;9.40;79.23;100323.66;5109429;28;20024;-70
2022/02/15 08:28:45;;;;;;;20.63;12.30;;;;;;;9.49;78.84;100329.13;5109529;28;20028;-69
2022/02/15 08:31:11;;;;;;;18.60;12.68;;;;;;;9.53;78.66;100335.91;5112015;28;20107;-69
2022/02/15 08:33:37;;;;;;;20.88;12.98;;;;;;;9.58;78.05;100331.03;5111952;28;20026;-69
2022/02/15 08:36:04;;;;;;;18.20;12.27;;;;;;;9.65;78.15;100334.03;5113489;28;20027;-68
2022/02/15 08:38:33;;;;;;;16.88;11.60;;;;;;;9.70;77.77;100329.16;5113501;28;20026;-68
2022/02/15 08:40:59;;;;;;;22.17;12.57;;;;;;;9.76;76.83;100340.19;5112810;28;20019;-69
2022/02/15 08:43:25;;;;;;;20.35;12.15;;;;;;;9.82;76.85;100328.97;5112935;28;20483;-69
2022/02/15 08:45:51;;;;;;;20.50;12.20;;;;;;;9.82;76.57;100326.28;5113351;28;20039;-69
2022/02/15 08:48:17;;;;;;;19.92;12.52;;;;;;;9.91;76.24;100332.69;5112915;28;20019;-70
2022/02/15 08:50:42;;;;;;;25.02;12.85;;;;;;;9.96;75.69;100338.50;5112999;28;20441;-69
2022/02/15 08:53:08;;;;;;;16.52;12.00;;;;;;;9.98;75.65;100334.72;5112577;28;20039;-68
2022/02/15 08:55:33;;;;;;;22.58;13.48;;;;;;;9.90;74.62;100320.28;5112642;28;20027;-69
2022/02/15 08:57:59;;;;;;;19.00;12.45;;;;;;;10.02;74.95;100341.50;5112731;28;20458;-69
2022/02/15 09:00:25;;;;;;;21.10;13.15;;;;;;;10.01;75.03;100333.59;5113139;28;20023;-69
2022/02/15 09:02:51;;;;;;;20.17;13.85;;;;;;;9.99;74.76;100333.72;5113012;28;20035;-69
2022/02/15 09:05:17;;;;;;;23.88;14.88;;;;;;;10.04;74.90;100334.19;5111279;28;20074;-70
2022/02/15 09:07:43;;;;;;;21.73;13.82;;;;;;;10.07;75.38;100333.13;5112541;27;20035;-69
2022/02/15 09:10:09;;;;;;;22.48;13.38;;;;;;;10.00;75.11;100323.88;5112340;28;20019;-69
2022/02/15 09:12:34;;;;;;;21.30;13.93;;;;;;;10.07;74.49;100322.38;5112718;28;20024;-68
2022/02/15 09:15:00;;;;;;;20.83;13.27;;;;;;;10.11;74.61;100326.50;5112543;28;20046;-77
2022/02/15 09:17:25;;;;;;;20.98;13.77;;;;;;;10.15;74.52;100336.81;5113327;28;20523;-68
2022/02/15 09:19:51;;;;;;;21.98;13.15;;;;;;;10.19;74.80;100338.25;5113349;28;20372;-77
2022/02/15 09:22:17;;;;;;;17.35;13.00;;;;;;;10.18;74.93;100328.53;5113462;28;20031;-77
2022/02/15 09:24:44;;;;;;;20.13;12.88;;;;;;;10.22;75.27;100324.59;5113768;28;20031;-76
2022/02/15 09:27:10;;;;;;;18.95;12.65;;;;;;;10.26;74.81;100335.91;5113348;28;20035;-76
2022/02/15 09:29:35;;;;;;;20.42;12.15;;;;;;;10.27;74.62;100319.69;5113431;28;20470;-76
2022/02/15 09:32:00;;;;;;;20.00;12.48;;;;;;;10.45;74.11;100339.53;5113362;28;20027;-77
2022/02/15 09:34:27;;;;;;;20.98;12.35;;;;;;;10.46;74.15;100321.63;5113768;28;20020;-77
2022/02/15 09:36:53;;;;;;;20.42;12.85;;;;;;;10.66;73.84;100345.72;5113713;28;20035;-77
2022/02/15 09:39:19;;;;;;;17.42;12.65;;;;;;;10.81;74.47;100343.53;5113329;28;20023;-78
2022/02/15 09:41:45;;;;;;;19.17;11.70;;;;;;;11.04;71.80;100329.78;5111380;28;20561;-69
2022/02/15 09:44:10;;;;;;;15.82;11.38;;;;;;;11.30;71.21;100340.84;5111921;28;20031;-69
2022/02/15 09:46:36;;;;;;;15.23;9.77;;;;;;;11.51;69.04;100342.41;5111860;28;20019;-70
2022/02/15 09:49:02;;;;;;;16.65;9.77;;;;;;;11.74;67.97;100342.19;5111916;28;20027;-69
2022/02/15 09:51:29;;;;;;;14.25;8.73;;;;;;;11.91;66.35;100330.72;5112057;27;20034;-68
2022/02/15 09:53:54;;;;;;;16.33;8.55;;;;;;;12.08;65.12;100335.34;5111870;28;20130;-68
2022/02/15 09:56:20;;;;;;;13.52;8.27;;;;;;;12.31;62.35;100328.66;5109919;28;20027;-68
2022/02/15 09:58:46;;;;;;;15.93;8.52;;;;;;;12.41;62.26;100329.50;5111282;28;20035;-70
2022/02/15 10:01:13;;;;;;;13.50;8.43;;;;;;;12.60;62.04;100334.78;5111144;27;20122;-68
2022/02/15 10:03:59;;;;;;;15.70;8.15;;;;;;;13.26;61.44;100321.03;5110375;28;20060;-68
2022/02/15 10:06:29;;;;;;;10.80;7.50;;;;;;;14.68;57.04;100326.13;5107391;28;20047;-68
2022/02/15 10:09:02;;;;;;;14.05;7.82;;;;;;;15.89;53.30;100320.09;5110260;28;20023;-69
2022/02/15 10:11:42;;;;;;;10.20;7.03;;;;;;;17.00;48.58;100311.13;5110651;28;20076;-69
2022/02/15 10:14:09;;;;;;;12.82;7.07;;;;;;;17.19;47.57;100300.69;5110374;28;20038;-69
2022/02/15 10:16:45;;;;;;;12.70;6.78;;;;;;;17.03;47.58;100284.50;5110261;28;20045;-69
2022/02/15 10:19:11;;;;;;;13.27;7.18;;;;;;;16.86;48.22;100292.91;5110382;28;20112;-70
2022/02/15 10:21:40;;;;;;;13.73;7.00;;;;;;;16.79;48.04;100290.03;5110530;28;20719;-69
2022/02/15 10:24:15;;;;;;;8.50;6.85;;;;;;;16.92;48.01;100290.31;5109428;28;20462;-68
2022/02/15 10:26:53;;;;;;;12.80;7.30;;;;;;;16.89;47.55;100287.97;5110677;28;20039;-69
2022/02/15 10:29:20;;;;;;;12.20;6.95;;;;;;;16.76;47.91;100275.97;5110921;28;20028;-68
2022/02/15 10:31:46;;;;;;;12.65;8.15;;;;;;;16.63;49.02;100283.81;5109129;28;20035;-69
2022/02/15 10:34:11;;;;;;;7.43;5.72;;;;;;;16.62;49.10;100287.53;5110886;28;20026;-69
2022/02/15 10:36:37;;;;;;;10.48;6.93;;;;;;;16.56;48.65;100275.56;5110709;28;20023;-69
2022/02/15 10:39:03;;;;;;;8.85;6.45;;;;;;;16.43;48.87;100268.97;5110660;28;20051;-69
2022/02/15 10:41:33;;;;;;;11.25;6.30;;;;;;;16.38;49.40;100282.19;5110382;28;20053;-68
2022/02/15 10:44:00;;;;;;;9.93;6.88;;;;;;;16.30;49.70;100274.06;5110926;28;20540;-70
2022/02/15 10:46:29;;;;;;;10.23;6.18;;;;;;;16.27;49.61;100280.66;5110723;28;20459;-69
2022/02/15 10:48:56;;;;;;;9.25;5.57;;;;;;;16.14;50.02;100279.50;5110472;28;20027;-69
2022/02/15 10:51:23;;;;;;;12.75;7.10;;;;;;;15.89;50.30;100262.44;5110279;28;20031;-69
2022/02/15 10:53:49;;;;;;;9.80;6.00;;;;;;;15.86;50.72;100270.88;5109547;27;20390;-70
2022/02/15 10:56:14;;;;;;;10.85;5.57;;;;;;;15.73;51.43;100262.44;5110491;28;20031;-70
2022/02/15 10:58:40;;;;;;;10.73;6.55;;;;;;;15.53;51.23;100266.50;5110234;28;20024;-70
2022/02/15 11:01:07;;;;;;;11.50;5.97;;;;;;;15.46;50.86;100270.88;5110298;28;20082;-69
2022/02/15 11:03:35;;;;;;;12.50;6.35;;;;;;;15.34;51.77;100269.47;5108427;28;20034;-69
2022/02/15 11:06:02;;;;;;;10.98;6.95;;;;;;;15.19;51.55;100254.94;5110430;28;20058;-70
2022/02/15 11:08:30;;;;;;;11.82;6.30;;;;;;;15.16;52.22;100260.66;5110301;28;20492;-70
2022/02/15 11:11:10;;;;;;;10.00;6.22;;;;;;;15.14;52.57;100262.66;5110514;28;20023;-69
2022/02/15 11:13:38;;;;;;;14.00;6.70;;;;;;;15.12;51.49;100260.13;5110173;28;20027;-70
2022/02/15 11:16:11;;;;;;;13.07;5.93;;;;;;;15.06;52.08;100255.38;5108785;28;20030;-70
2022/02/15 11:18:36;;;;;;;10.02;6.05;;;;;;;15.09;51.54;100254.22;5109951;28;20024;-70